createdAt,value
2019-03-10T00:00:33.014Z,1010.87
2019-03-10T00:01:32.992Z,1010.90
2019-03-10T00:02:32.985Z,1010.95
2019-03-10T00:03:32.955Z,1010.88
2019-03-10T00:04:32.944Z,1010.88
2019-03-10T00:05:32.932Z,1010.87
2019-03-10T00:06:32.940Z,1010.83
2019-03-10T00:07:32.913Z,1010.84
2019-03-10T00:08:32.927Z,1010.83
2019-03-10T00:09:32.904Z,1010.81
2019-03-10T00:10:32.879Z,1010.78
2019-03-10T00:11:32.891Z,1010.73
2019-03-10T00:12:32.863Z,1010.69
2019-03-10T00:13:32.847Z,1010.68
2019-03-10T00:14:32.837Z,1010.67
2019-03-10T00:15:32.836Z,1010.60
2019-03-10T00:16:32.835Z,1010.54
2019-03-10T00:17:32.839Z,1010.51
2019-03-10T00:18:32.832Z,1010.49
2019-03-10T00:19:32.786Z,1010.47
2019-03-10T00:20:32.784Z,1010.44
2019-03-10T00:21:32.782Z,1010.42
2019-03-10T00:22:32.752Z,1010.44
2019-03-10T00:23:32.746Z,1010.44
2019-03-10T00:24:32.732Z,1010.37
2019-03-10T00:25:32.723Z,1010.35
2019-03-10T00:26:32.744Z,1010.29
2019-03-10T00:27:32.706Z,1010.28
2019-03-10T00:28:32.696Z,1010.28
2019-03-10T00:29:32.680Z,1010.28
2019-03-10T00:30:32.673Z,1010.30
2019-03-10T00:31:32.678Z,1010.32
2019-03-10T00:32:32.650Z,1010.32
2019-03-10T00:33:32.641Z,1010.32
2019-03-10T00:34:32.628Z,1010.31
2019-03-10T00:35:32.616Z,1010.27
2019-03-10T00:36:32.623Z,1010.31
2019-03-10T00:37:32.601Z,1010.24
2019-03-10T00:38:32.588Z,1010.25
2019-03-10T00:39:32.578Z,1010.27
2019-03-10T00:40:32.562Z,1010.26
2019-03-10T00:41:32.572Z,1010.21
2019-03-10T00:42:32.544Z,1010.27
2019-03-10T00:43:32.531Z,1010.30
2019-03-10T00:44:32.528Z,1010.23
2019-03-10T00:45:32.510Z,1010.21
2019-03-10T00:46:32.522Z,1010.16
2019-03-10T00:47:32.490Z,1010.16
2019-03-10T00:48:32.480Z,1010.11
2019-03-10T00:49:32.473Z,1010.08
2019-03-10T00:50:32.463Z,1010.13
2019-03-10T00:51:34.273Z,1010.04
2019-03-10T00:52:32.456Z,1010.04
2019-03-10T00:53:32.425Z,1010.08
2019-03-10T00:54:32.416Z,1010.09
2019-03-10T00:55:32.404Z,1010.05
2019-03-10T00:56:32.394Z,1010.01
2019-03-10T00:57:32.406Z,1010.00
2019-03-10T00:58:32.399Z,1010.05
2019-03-10T00:59:32.368Z,1010.02
2019-03-10T01:00:32.357Z,1010.02
2019-03-10T01:01:32.354Z,1010.05
2019-03-10T01:02:32.354Z,1010.09
2019-03-10T01:03:32.326Z,1010.03
2019-03-10T01:04:32.312Z,1010.00
2019-03-10T01:05:32.298Z,1009.96
2019-03-10T01:06:32.292Z,1009.91
2019-03-10T01:07:32.302Z,1009.98
2019-03-10T01:08:32.268Z,1009.94
2019-03-10T01:09:32.260Z,1009.90
2019-03-10T01:10:32.246Z,1009.91
2019-03-10T01:11:32.236Z,1009.87
2019-03-10T01:12:32.250Z,1009.91
2019-03-10T01:13:32.214Z,1009.91
2019-03-10T01:14:32.204Z,1009.84
2019-03-10T01:15:32.193Z,1009.89
2019-03-10T01:16:32.198Z,1009.89
2019-03-10T01:17:32.192Z,1009.90
2019-03-10T01:18:32.161Z,1009.83
2019-03-10T01:19:32.153Z,1009.82
2019-03-10T01:20:32.143Z,1009.79
2019-03-10T01:21:32.139Z,1009.75
2019-03-10T01:22:32.705Z,1009.81
2019-03-10T01:23:32.115Z,1009.79
2019-03-10T01:24:32.099Z,1009.74
2019-03-10T01:25:32.088Z,1009.65
2019-03-10T01:26:32.077Z,1009.64
2019-03-10T01:27:32.068Z,1009.58
2019-03-10T01:28:32.077Z,1009.59
2019-03-10T01:29:32.044Z,1009.51
2019-03-10T01:30:32.035Z,1009.48
2019-03-10T01:31:32.024Z,1009.44
2019-03-10T01:32:32.013Z,1009.43
2019-03-10T01:33:32.033Z,1009.39
2019-03-10T01:34:31.991Z,1009.35
2019-03-10T01:35:31.981Z,1009.27
2019-03-10T01:36:31.973Z,1009.26
2019-03-10T01:37:31.960Z,1009.19
2019-03-10T01:38:31.971Z,1009.16
2019-03-10T01:39:31.941Z,1009.08
2019-03-10T01:40:31.931Z,1009.03
2019-03-10T01:41:31.919Z,1009.01
2019-03-10T01:42:31.931Z,1009.02
2019-03-10T01:43:31.924Z,1008.99
2019-03-10T01:44:31.890Z,1008.94
2019-03-10T01:45:31.921Z,1008.87
2019-03-10T01:46:31.867Z,1008.92
2019-03-10T01:47:31.861Z,1008.79
2019-03-10T01:48:31.864Z,1008.78
2019-03-10T01:49:31.834Z,1008.76
2019-03-10T01:50:31.826Z,1008.79
2019-03-10T01:51:31.823Z,1008.74
2019-03-10T01:52:31.802Z,1008.68
2019-03-10T01:53:32.713Z,1008.67
2019-03-10T01:54:31.782Z,1008.59
2019-03-10T01:55:31.783Z,1008.62
2019-03-10T01:56:31.765Z,1008.59
2019-03-10T01:57:31.755Z,1008.54
2019-03-10T01:58:31.741Z,1008.54
2019-03-10T01:59:31.750Z,1008.51
2019-03-10T02:00:31.717Z,1008.50
2019-03-10T02:01:31.708Z,1008.42
2019-03-10T02:02:31.707Z,1008.41
2019-03-10T02:03:31.698Z,1008.34
2019-03-10T02:04:31.698Z,1008.29
2019-03-10T02:05:31.668Z,1008.23
2019-03-10T02:06:31.654Z,1008.24
2019-03-10T02:07:31.654Z,1008.22
2019-03-10T02:08:31.639Z,1008.15
2019-03-10T02:09:31.648Z,1008.11
2019-03-10T02:10:31.615Z,1008.01
2019-03-10T02:11:31.610Z,1007.99
2019-03-10T02:12:31.599Z,1007.97
2019-03-10T02:13:31.579Z,1007.94
2019-03-10T02:14:31.593Z,1007.89
2019-03-10T02:15:31.560Z,1007.86
2019-03-10T02:16:31.549Z,1007.91
2019-03-10T02:17:31.538Z,1007.85
2019-03-10T02:18:31.527Z,1007.83
2019-03-10T02:19:31.534Z,1007.75
2019-03-10T02:20:31.508Z,1007.68
2019-03-10T02:21:31.501Z,1007.61
2019-03-10T02:22:31.504Z,1007.66
2019-03-10T02:23:31.478Z,1007.62
2019-03-10T02:24:31.484Z,1007.58
2019-03-10T02:25:31.455Z,1007.51
2019-03-10T02:26:31.448Z,1007.53
2019-03-10T02:27:31.431Z,1007.46
2019-03-10T02:28:31.423Z,1007.46
2019-03-10T02:29:31.483Z,1007.46
2019-03-10T02:30:31.409Z,1007.47
2019-03-10T02:31:31.392Z,1007.45
2019-03-10T02:32:31.387Z,1007.45
2019-03-10T02:33:31.372Z,1007.45
2019-03-10T02:34:31.366Z,1007.44
2019-03-10T02:36:41.146Z,1007.44
2019-03-10T02:37:41.112Z,1007.36
2019-03-10T02:38:41.110Z,1007.30
2019-03-10T02:39:41.116Z,1007.26
2019-03-10T02:40:43.333Z,1007.25
2019-03-10T02:41:41.073Z,1007.26
2019-03-10T02:42:41.078Z,1007.18
2019-03-10T02:43:41.044Z,1007.17
2019-03-10T02:44:41.036Z,1007.11
2019-03-10T02:45:41.041Z,1007.04
2019-03-10T02:46:41.025Z,1007.03
2019-03-10T02:47:41.003Z,1007.02
2019-03-10T02:48:40.989Z,1007.02
2019-03-10T02:49:40.980Z,1006.95
2019-03-10T02:50:40.986Z,1006.98
2019-03-10T02:51:40.970Z,1006.94
2019-03-10T02:52:40.950Z,1006.94
2019-03-10T02:53:40.937Z,1006.92
2019-03-10T02:54:40.926Z,1006.87
2019-03-10T02:55:40.942Z,1006.89
2019-03-10T02:56:40.920Z,1006.80
2019-03-10T02:57:40.901Z,1006.75
2019-03-10T02:58:40.879Z,1006.66
2019-03-10T02:59:40.876Z,1006.60
2019-03-10T03:00:40.881Z,1006.59
2019-03-10T03:01:40.860Z,1006.53
2019-03-10T03:02:40.880Z,1006.49
2019-03-10T03:03:40.827Z,1006.53
2019-03-10T03:04:40.819Z,1006.47
2019-03-10T03:05:40.825Z,1006.45
2019-03-10T03:06:40.806Z,1006.45
2019-03-10T03:07:40.796Z,1006.44
2019-03-10T03:08:40.774Z,1006.45
2019-03-10T03:09:40.763Z,1006.40
2019-03-10T03:10:40.774Z,1006.40
2019-03-10T03:11:40.745Z,1006.41
2019-03-10T03:12:40.731Z,1006.36
2019-03-10T03:13:40.723Z,1006.32
2019-03-10T03:14:40.715Z,1006.35
2019-03-10T03:15:40.720Z,1006.28
2019-03-10T03:16:40.707Z,1006.28
2019-03-10T03:17:40.680Z,1006.24
2019-03-10T03:18:40.667Z,1006.23
2019-03-10T03:19:40.655Z,1006.18
2019-03-10T03:20:40.659Z,1006.17
2019-03-10T03:21:43.507Z,1006.14
2019-03-10T03:22:40.621Z,1006.16
2019-03-10T03:23:40.612Z,1006.10
2019-03-10T03:24:40.609Z,1006.17
2019-03-10T03:25:40.594Z,1006.14
2019-03-10T03:26:40.600Z,1006.04
2019-03-10T03:27:40.568Z,1006.08
2019-03-10T03:28:40.560Z,1005.99
2019-03-10T03:29:40.554Z,1005.98
2019-03-10T03:30:40.537Z,1005.95
2019-03-10T03:31:40.561Z,1005.93
2019-03-10T03:32:40.515Z,1005.89
2019-03-10T03:33:40.504Z,1005.78
2019-03-10T03:34:40.502Z,1005.82
2019-03-10T03:35:40.487Z,1005.78
2019-03-10T03:36:40.501Z,1005.78
2019-03-10T03:37:40.462Z,1005.77
2019-03-10T03:38:40.451Z,1005.75
2019-03-10T03:39:40.439Z,1005.72
2019-03-10T03:40:40.431Z,1005.70
2019-03-10T03:41:40.461Z,1005.65
2019-03-10T03:42:40.409Z,1005.61
2019-03-10T03:43:40.405Z,1005.63
2019-03-10T03:44:40.390Z,1005.50
2019-03-10T03:45:40.375Z,1005.58
2019-03-10T03:46:40.372Z,1005.49
2019-03-10T03:47:40.376Z,1005.53
2019-03-10T03:48:40.344Z,1005.48
2019-03-10T03:49:40.333Z,1005.47
2019-03-10T03:50:40.327Z,1005.47
2019-03-10T03:51:40.319Z,1005.37
2019-03-10T03:52:40.365Z,1005.35
2019-03-10T03:53:40.341Z,1005.34
2019-03-10T03:54:40.283Z,1005.27
2019-03-10T03:55:40.275Z,1005.22
2019-03-10T03:56:40.260Z,1005.24
2019-03-10T03:57:40.267Z,1005.16
2019-03-10T03:58:40.249Z,1005.12
2019-03-10T03:59:40.224Z,1005.12
2019-03-10T04:00:40.218Z,1005.11
2019-03-10T04:01:40.204Z,1005.09
2019-03-10T04:02:40.231Z,1005.02
2019-03-10T04:03:40.192Z,1005.02
2019-03-10T04:04:40.171Z,1004.93
2019-03-10T04:05:40.161Z,1004.89
2019-03-10T04:06:40.157Z,1004.85
2019-03-10T04:07:40.144Z,1004.87
2019-03-10T04:08:40.154Z,1004.83
2019-03-10T04:09:40.119Z,1004.89
2019-03-10T04:10:40.106Z,1004.80
2019-03-10T04:11:40.125Z,1004.76
2019-03-10T04:12:40.086Z,1004.74
2019-03-10T04:13:40.093Z,1004.72
2019-03-10T04:14:40.064Z,1004.76
2019-03-10T04:15:40.063Z,1004.68
2019-03-10T04:16:40.046Z,1004.66
2019-03-10T04:17:40.038Z,1004.60
2019-03-10T04:18:40.046Z,1004.56
2019-03-10T04:19:40.022Z,1004.56
2019-03-10T04:20:40.000Z,1004.52
2019-03-10T04:21:39.994Z,1004.47
2019-03-10T04:22:39.979Z,1004.44
2019-03-10T04:23:39.993Z,1004.47
2019-03-10T04:24:39.957Z,1004.38
2019-03-10T04:25:39.948Z,1004.31
2019-03-10T04:26:39.948Z,1004.29
2019-03-10T04:27:39.926Z,1004.22
2019-03-10T04:28:39.943Z,1004.22
2019-03-10T04:29:39.906Z,1004.22
2019-03-10T04:30:39.892Z,1004.20
2019-03-10T04:31:39.884Z,1004.14
2019-03-10T04:32:39.885Z,1004.12
2019-03-10T04:33:39.887Z,1004.12
2019-03-10T04:34:39.897Z,1004.13
2019-03-10T04:35:39.862Z,1004.09
2019-03-10T04:36:39.830Z,1004.07
2019-03-10T04:37:39.825Z,1004.04
2019-03-10T04:38:39.820Z,1004.02
2019-03-10T04:39:39.826Z,1003.97
2019-03-10T04:40:39.785Z,1003.94
2019-03-10T04:41:39.774Z,1003.94
2019-03-10T04:42:39.767Z,1003.86
2019-03-10T04:43:39.762Z,1003.77
2019-03-10T04:44:39.765Z,1003.75
2019-03-10T04:45:39.742Z,1003.74
2019-03-10T04:46:39.725Z,1003.72
2019-03-10T04:47:39.718Z,1003.73
2019-03-10T04:48:39.701Z,1003.72
2019-03-10T04:49:39.741Z,1003.62
2019-03-10T04:50:39.686Z,1003.61
2019-03-10T04:51:39.670Z,1003.63
2019-03-10T04:52:39.669Z,1003.61
2019-03-10T04:53:39.655Z,1003.57
2019-03-10T04:54:39.646Z,1003.57
2019-03-10T04:55:39.654Z,1003.52
2019-03-10T04:56:39.619Z,1003.51
2019-03-10T04:57:39.615Z,1003.46
2019-03-10T04:58:39.610Z,1003.48
2019-03-10T04:59:39.648Z,1003.43
2019-03-10T05:00:39.603Z,1003.36
2019-03-10T05:01:39.573Z,1003.32
2019-03-10T05:02:39.557Z,1003.29
2019-03-10T05:03:39.541Z,1003.29
2019-03-10T05:04:39.537Z,1003.25
2019-03-10T05:05:39.542Z,1003.16
2019-03-10T05:06:39.517Z,1003.20
2019-03-10T05:07:39.507Z,1003.09
2019-03-10T05:08:39.493Z,1003.02
2019-03-10T05:09:39.499Z,1003.01
2019-03-10T05:10:39.498Z,1002.96
2019-03-10T05:11:39.508Z,1002.91
2019-03-10T05:12:39.450Z,1002.84
2019-03-10T05:13:39.450Z,1002.76
2019-03-10T05:14:39.430Z,1002.67
2019-03-10T05:15:39.439Z,1002.60
2019-03-10T05:16:39.408Z,1002.58
2019-03-10T05:17:39.410Z,1002.52
2019-03-10T05:18:39.397Z,1002.52
2019-03-10T05:19:39.382Z,1002.37
2019-03-10T05:20:39.372Z,1002.30
2019-03-10T05:21:39.392Z,1002.31
2019-03-10T05:22:39.347Z,1002.32
2019-03-10T05:23:39.352Z,1002.21
2019-03-10T05:24:39.324Z,1002.20
2019-03-10T05:25:39.313Z,1002.15
2019-03-10T05:26:39.326Z,1002.14
2019-03-10T05:27:39.290Z,1002.13
2019-03-10T05:28:39.293Z,1002.12
2019-03-10T05:29:39.275Z,1002.02
2019-03-10T05:30:39.258Z,1001.99
2019-03-10T05:31:39.264Z,1001.99
2019-03-10T05:32:39.238Z,1001.92
2019-03-10T05:33:39.229Z,1001.82
2019-03-10T05:34:39.218Z,1001.83
2019-03-10T05:35:39.212Z,1001.70
2019-03-10T05:36:39.230Z,1001.64
2019-03-10T05:37:39.183Z,1001.55
2019-03-10T05:38:39.235Z,1001.49
2019-03-10T05:39:39.162Z,1001.46
2019-03-10T05:40:39.194Z,1001.39
2019-03-10T05:41:39.163Z,1001.39
2019-03-10T05:42:39.131Z,1001.38
2019-03-10T05:43:39.128Z,1001.32
2019-03-10T05:44:39.123Z,1001.34
2019-03-10T05:45:39.111Z,1001.33
2019-03-10T05:46:39.107Z,1001.32
2019-03-10T05:47:39.082Z,1001.36
2019-03-10T05:48:39.069Z,1001.26
2019-03-10T05:49:39.061Z,1001.28
2019-03-10T05:50:39.050Z,1001.29
2019-03-10T05:51:39.066Z,1001.24
2019-03-10T05:52:39.027Z,1001.23
2019-03-10T05:53:39.015Z,1001.25
2019-03-10T05:54:39.004Z,1001.26
2019-03-10T05:55:38.991Z,1001.21
2019-03-10T05:56:39.003Z,1001.20
2019-03-10T05:57:38.972Z,1001.19
2019-03-10T05:58:38.985Z,1001.16
2019-03-10T05:59:38.958Z,1001.17
2019-03-10T06:00:43.071Z,1001.08
2019-03-10T06:01:38.955Z,1001.11
2019-03-10T06:02:38.916Z,1001.07
2019-03-10T06:03:38.905Z,1001.03
2019-03-10T06:04:38.937Z,1000.98
2019-03-10T06:05:38.888Z,1000.89
2019-03-10T06:06:38.882Z,1000.96
2019-03-10T06:07:38.894Z,1000.99
2019-03-10T06:08:38.855Z,1000.90
2019-03-10T06:09:38.849Z,1000.95
2019-03-10T06:10:38.836Z,1000.97
2019-03-10T06:11:38.828Z,1001.01
2019-03-10T06:12:38.833Z,1001.04
2019-03-10T06:13:38.807Z,1000.93
2019-03-10T06:14:38.800Z,1000.87
2019-03-10T06:15:38.794Z,1000.79
2019-03-10T06:16:38.772Z,1000.71
2019-03-10T06:17:38.849Z,1000.55
2019-03-10T06:18:38.757Z,1000.56
2019-03-10T06:19:38.748Z,1000.52
2019-03-10T06:20:38.729Z,1000.51
2019-03-10T06:21:38.724Z,1000.48
2019-03-10T06:22:38.741Z,1000.54
2019-03-10T06:23:39.375Z,1000.52
2019-03-10T06:24:38.685Z,1000.49
2019-03-10T06:25:38.670Z,1000.44
2019-03-10T06:26:38.662Z,1000.41
2019-03-10T06:27:38.669Z,1000.28
2019-03-10T06:28:38.669Z,1000.19
2019-03-10T06:29:38.634Z,1000.22
2019-03-10T06:30:38.653Z,1000.21
2019-03-10T06:31:38.616Z,1000.16
2019-03-10T06:32:38.601Z,1000.14
2019-03-10T06:33:38.614Z,1000.08
2019-03-10T06:34:38.581Z,999.94
2019-03-10T06:35:38.568Z,999.92
2019-03-10T06:36:38.555Z,999.97
2019-03-10T06:37:38.554Z,999.80
2019-03-10T06:38:38.565Z,999.78
2019-03-10T06:39:38.522Z,999.73
2019-03-10T06:40:38.510Z,999.66
2019-03-10T06:41:38.499Z,999.53
2019-03-10T06:42:38.496Z,999.52
2019-03-10T06:43:38.505Z,999.51
2019-03-10T06:44:38.467Z,999.53
2019-03-10T06:45:38.455Z,999.61
2019-03-10T06:46:38.445Z,999.67
2019-03-10T06:47:38.447Z,999.52
2019-03-10T06:48:38.445Z,999.50
2019-03-10T06:49:38.412Z,999.48
2019-03-10T06:50:38.401Z,999.50
2019-03-10T06:51:38.392Z,999.65
2019-03-10T06:52:38.384Z,999.69
2019-03-10T06:53:38.389Z,999.59
2019-03-10T06:54:38.358Z,999.42
2019-03-10T06:55:38.348Z,999.40
2019-03-10T06:56:38.336Z,999.33
2019-03-10T06:57:38.325Z,999.28
2019-03-10T06:58:38.356Z,999.28
2019-03-10T06:59:38.303Z,999.16
2019-03-10T07:00:38.292Z,999.09
2019-03-10T07:01:38.297Z,999.02
2019-03-10T07:02:38.273Z,998.94
2019-03-10T07:03:38.262Z,999.00
2019-03-10T07:04:38.272Z,998.95
2019-03-10T07:05:38.246Z,998.91
2019-03-10T07:06:38.227Z,998.90
2019-03-10T07:07:38.216Z,998.84
2019-03-10T07:08:38.205Z,998.88
2019-03-10T07:09:38.216Z,998.83
2019-03-10T07:10:38.197Z,998.82
2019-03-10T07:11:38.173Z,998.76
2019-03-10T07:12:38.167Z,998.84
2019-03-10T07:13:39.713Z,998.82
2019-03-10T07:14:38.165Z,998.72
2019-03-10T07:15:38.163Z,998.71
2019-03-10T07:16:38.126Z,998.73
2019-03-10T07:17:38.109Z,998.70
2019-03-10T07:18:38.097Z,998.68
2019-03-10T07:19:38.107Z,998.64
2019-03-10T07:20:38.075Z,998.59
2019-03-10T07:21:38.064Z,998.62
2019-03-10T07:22:38.056Z,998.61
2019-03-10T07:23:38.043Z,998.70
2019-03-10T07:24:38.050Z,998.61
2019-03-10T07:25:38.021Z,998.64
2019-03-10T07:26:38.008Z,998.61
2019-03-10T07:27:38.008Z,998.56
2019-03-10T07:28:37.986Z,998.53
2019-03-10T07:29:37.994Z,998.51
2019-03-10T07:30:37.972Z,998.46
2019-03-10T07:31:37.953Z,998.44
2019-03-10T07:32:37.962Z,998.38
2019-03-10T07:33:37.933Z,998.37
2019-03-10T07:34:37.940Z,998.38
2019-03-10T07:35:37.909Z,998.32
2019-03-10T07:36:37.904Z,998.33
2019-03-10T07:37:37.899Z,998.32
2019-03-10T07:38:37.880Z,998.32
2019-03-10T07:39:37.894Z,998.25
2019-03-10T07:40:37.858Z,998.21
2019-03-10T07:41:37.847Z,998.20
2019-03-10T07:42:37.843Z,998.23
2019-03-10T07:43:37.826Z,998.14
2019-03-10T07:44:37.811Z,998.10
2019-03-10T07:45:37.822Z,998.09
2019-03-10T07:46:37.792Z,998.05
2019-03-10T07:47:37.787Z,998.07
2019-03-10T07:48:37.856Z,998.08
2019-03-10T07:49:37.758Z,998.11
2019-03-10T07:50:37.772Z,998.05
2019-03-10T07:51:37.751Z,998.07
2019-03-10T07:52:37.728Z,998.08
2019-03-10T07:53:37.721Z,998.03
2019-03-10T07:54:37.714Z,998.02
2019-03-10T07:55:37.714Z,998.07
2019-03-10T07:56:37.684Z,998.09
2019-03-10T07:57:37.674Z,998.11
2019-03-10T07:58:37.674Z,998.13
2019-03-10T07:59:37.657Z,998.18
2019-03-10T08:00:37.661Z,998.15
2019-03-10T08:01:37.636Z,998.12
2019-03-10T08:02:37.624Z,998.11
2019-03-10T08:03:37.619Z,998.12
2019-03-10T08:04:37.602Z,998.04
2019-03-10T08:05:37.607Z,997.98
2019-03-10T08:06:37.579Z,997.96
2019-03-10T08:07:37.571Z,998.00
2019-03-10T08:08:37.570Z,998.02
2019-03-10T08:09:37.546Z,997.94
2019-03-10T08:10:37.554Z,997.95
2019-03-10T08:11:37.524Z,997.92
2019-03-10T08:12:37.515Z,998.02
2019-03-10T08:13:37.511Z,997.87
2019-03-10T08:14:37.494Z,997.84
2019-03-10T08:15:37.503Z,997.83
2019-03-10T08:16:37.469Z,997.79
2019-03-10T08:17:37.466Z,997.76
2019-03-10T08:18:37.458Z,997.71
2019-03-10T08:19:37.443Z,997.70
2019-03-10T08:20:37.452Z,997.66
2019-03-10T08:21:37.417Z,997.67
2019-03-10T08:22:37.405Z,997.66
2019-03-10T08:23:37.403Z,997.61
2019-03-10T08:24:37.386Z,997.53
2019-03-10T08:25:37.376Z,997.39
2019-03-10T08:26:37.389Z,997.50
2019-03-10T08:27:37.358Z,997.51
2019-03-10T08:28:37.346Z,997.62
2019-03-10T08:29:37.333Z,997.58
2019-03-10T08:30:37.321Z,997.56
2019-03-10T08:31:37.328Z,997.52
2019-03-10T08:32:37.299Z,997.58
2019-03-10T08:33:37.290Z,997.63
2019-03-10T08:34:37.278Z,997.65
2019-03-10T08:35:37.269Z,997.64
2019-03-10T08:36:44.820Z,997.60
2019-03-10T08:37:37.255Z,997.64
2019-03-10T08:38:37.266Z,997.65
2019-03-10T08:39:37.229Z,997.63
2019-03-10T08:40:37.219Z,997.71
2019-03-10T08:41:37.225Z,997.65
2019-03-10T08:42:37.202Z,997.63
2019-03-10T08:43:37.196Z,997.69
2019-03-10T08:44:37.173Z,997.71
2019-03-10T08:45:37.167Z,997.71
2019-03-10T08:46:37.173Z,997.65
2019-03-10T08:47:37.168Z,997.63
2019-03-10T08:48:37.130Z,997.60
2019-03-10T08:49:44.694Z,997.59
2019-03-10T08:50:38.109Z,997.66
2019-03-10T08:51:37.123Z,997.61
2019-03-10T08:52:37.092Z,997.60
2019-03-10T08:53:37.075Z,997.51
2019-03-10T08:54:37.067Z,997.49
2019-03-10T08:55:37.056Z,997.48
2019-03-10T08:56:37.116Z,997.43
2019-03-10T08:57:37.035Z,997.39
2019-03-10T08:58:37.033Z,997.44
2019-03-10T08:59:37.028Z,997.39
2019-03-10T09:00:37.023Z,997.39
2019-03-10T09:01:36.996Z,997.38
2019-03-10T09:02:37.001Z,997.26
2019-03-10T09:03:36.988Z,997.27
2019-03-10T09:04:36.958Z,997.29
2019-03-10T09:05:36.949Z,997.30
2019-03-10T09:06:36.941Z,997.29
2019-03-10T09:07:36.943Z,997.19
2019-03-10T09:08:36.913Z,997.37
2019-03-10T09:09:36.975Z,997.37
2019-03-10T09:10:36.946Z,997.33
2019-03-10T09:11:36.881Z,997.33
2019-03-10T09:12:36.893Z,997.29
2019-03-10T09:13:36.863Z,997.30
2019-03-10T09:14:36.852Z,997.32
2019-03-10T09:15:36.841Z,997.22
2019-03-10T09:16:36.835Z,997.21
2019-03-10T09:17:36.840Z,997.28
2019-03-10T09:18:36.806Z,997.20
2019-03-10T09:19:36.799Z,997.22
2019-03-10T09:20:36.792Z,997.15
2019-03-10T09:21:36.865Z,997.15
2019-03-10T09:22:36.791Z,997.17
2019-03-10T09:23:36.755Z,997.22
2019-03-10T09:24:36.754Z,997.24
2019-03-10T09:25:36.737Z,997.23
2019-03-10T09:26:36.723Z,997.27
2019-03-10T09:27:36.750Z,997.26
2019-03-10T09:28:36.704Z,997.29
2019-03-10T09:29:36.688Z,997.18
2019-03-10T09:30:36.680Z,997.21
2019-03-10T09:31:36.671Z,997.25
2019-03-10T09:32:37.019Z,997.13
2019-03-10T09:33:36.683Z,997.17
2019-03-10T09:34:36.642Z,997.25
2019-03-10T09:35:36.631Z,997.22
2019-03-10T09:36:36.614Z,997.22
2019-03-10T09:37:36.602Z,997.14
2019-03-10T09:38:36.611Z,997.01
2019-03-10T09:39:36.594Z,997.04
2019-03-10T09:40:36.579Z,997.13
2019-03-10T09:41:36.560Z,997.05
2019-03-10T09:42:36.550Z,997.03
2019-03-10T09:43:36.563Z,997.06
2019-03-10T09:44:36.528Z,997.01
2019-03-10T09:45:36.518Z,997.10
2019-03-10T09:46:36.525Z,997.09
2019-03-10T09:47:36.496Z,997.05
2019-03-10T09:48:36.513Z,997.08
2019-03-10T09:49:36.476Z,997.05
2019-03-10T09:50:36.480Z,997.00
2019-03-10T09:51:36.455Z,996.96
2019-03-10T09:52:36.439Z,996.99
2019-03-10T09:53:36.457Z,997.01
2019-03-10T09:54:36.424Z,996.80
2019-03-10T09:55:36.410Z,996.90
2019-03-10T09:56:36.397Z,996.90
2019-03-10T09:57:36.387Z,996.95
2019-03-10T09:58:36.394Z,996.96
2019-03-10T09:59:36.364Z,996.82
2019-03-10T10:00:36.357Z,996.79
2019-03-10T10:01:36.345Z,996.74
2019-03-10T10:02:36.354Z,996.84
2019-03-10T10:03:36.349Z,996.88
2019-03-10T10:04:36.311Z,996.67
2019-03-10T10:05:36.303Z,996.75
2019-03-10T10:06:36.288Z,996.65
2019-03-10T10:07:36.281Z,996.74
2019-03-10T10:08:36.285Z,996.71
2019-03-10T10:09:36.256Z,996.68
2019-03-10T10:10:36.247Z,996.47
2019-03-10T10:11:36.235Z,996.52
2019-03-10T10:12:36.225Z,996.46
2019-03-10T10:13:36.233Z,996.57
2019-03-10T10:14:36.214Z,996.51
2019-03-10T10:15:36.195Z,996.58
2019-03-10T10:16:36.203Z,996.50
2019-03-10T10:17:36.168Z,996.58
2019-03-10T10:18:36.191Z,996.48
2019-03-10T10:19:36.153Z,996.40
2019-03-10T10:20:36.165Z,996.57
2019-03-10T10:21:36.127Z,996.37
2019-03-10T10:22:36.116Z,996.59
2019-03-10T10:23:36.109Z,996.48
2019-03-10T10:24:36.112Z,996.51
2019-03-10T10:25:36.101Z,996.49
2019-03-10T10:26:36.113Z,996.40
2019-03-10T10:27:36.062Z,996.41
2019-03-10T10:28:36.054Z,996.55
2019-03-10T10:29:36.064Z,996.53
2019-03-10T10:30:36.029Z,996.49
2019-03-10T10:31:36.021Z,996.50
2019-03-10T10:32:36.010Z,996.34
2019-03-10T10:33:35.996Z,996.52
2019-03-10T10:34:36.458Z,996.31
2019-03-10T10:35:35.975Z,996.45
2019-03-10T10:36:35.967Z,996.47
2019-03-10T10:37:35.961Z,996.38
2019-03-10T10:38:37.643Z,996.47
2019-03-10T10:39:35.956Z,996.49
2019-03-10T10:40:35.939Z,996.47
2019-03-10T10:41:35.970Z,996.77
2019-03-10T10:42:35.919Z,996.59
2019-03-10T10:43:35.892Z,996.56
2019-03-10T10:44:35.905Z,996.39
2019-03-10T10:45:35.869Z,996.31
2019-03-10T10:46:35.856Z,996.33
2019-03-10T10:47:35.847Z,996.41
2019-03-10T10:48:35.838Z,996.36
2019-03-10T10:49:35.865Z,996.37
2019-03-10T10:50:35.834Z,996.27
2019-03-10T10:51:35.811Z,996.24
2019-03-10T10:52:35.806Z,996.20
2019-03-10T10:53:35.785Z,996.12
2019-03-10T10:54:35.773Z,996.09
2019-03-10T10:55:35.778Z,996.07
2019-03-10T10:56:35.758Z,996.04
2019-03-10T10:57:35.753Z,996.01
2019-03-10T10:58:35.731Z,996.01
2019-03-10T10:59:35.716Z,996.07
2019-03-10T11:00:35.733Z,995.94
2019-03-10T11:01:35.698Z,995.94
2019-03-10T11:02:35.684Z,995.88
2019-03-10T11:03:35.674Z,995.89
2019-03-10T11:04:35.667Z,995.90
2019-03-10T11:05:35.672Z,995.96
2019-03-10T11:06:35.641Z,995.98
2019-03-10T11:07:35.639Z,995.97
2019-03-10T11:08:35.620Z,996.10
2019-03-10T11:09:35.656Z,995.96
2019-03-10T11:10:35.677Z,996.01
2019-03-10T11:11:35.592Z,995.85
2019-03-10T11:12:35.577Z,995.95
2019-03-10T11:13:35.569Z,995.91
2019-03-10T11:14:35.595Z,995.93
2019-03-10T11:15:35.653Z,996.08
2019-03-10T11:16:35.566Z,996.00
2019-03-10T11:17:35.524Z,996.11
2019-03-10T11:18:35.525Z,996.15
2019-03-10T11:19:35.512Z,996.12
2019-03-10T11:20:35.573Z,996.24
2019-03-10T11:21:35.483Z,996.00
2019-03-10T11:22:35.478Z,996.14
2019-03-10T11:23:35.481Z,996.09
2019-03-10T11:24:35.450Z,996.08
2019-03-10T11:25:35.459Z,996.12
2019-03-10T11:26:35.430Z,996.04
2019-03-10T11:27:35.420Z,996.20
2019-03-10T11:28:35.405Z,996.11
2019-03-10T11:29:35.399Z,996.18
2019-03-10T11:30:35.406Z,996.16
2019-03-10T11:31:35.374Z,996.17
2019-03-10T11:32:35.371Z,996.21
2019-03-10T11:33:35.389Z,996.24
2019-03-10T11:34:35.355Z,996.24
2019-03-10T11:35:35.358Z,996.32
2019-03-10T11:36:35.327Z,996.46
2019-03-10T11:37:35.308Z,996.45
2019-03-10T11:38:37.063Z,996.37
2019-03-10T11:39:35.290Z,996.32
2019-03-10T11:40:35.309Z,996.24
2019-03-10T11:41:35.292Z,996.14
2019-03-10T11:42:35.274Z,996.32
2019-03-10T11:43:35.251Z,996.36
2019-03-10T11:44:35.242Z,996.38
2019-03-10T11:45:35.236Z,996.41
2019-03-10T11:46:35.279Z,996.38
2019-03-10T11:47:35.201Z,996.36
2019-03-10T11:48:35.198Z,996.34
2019-03-10T11:49:35.180Z,996.43
2019-03-10T11:50:35.173Z,996.43
2019-03-10T11:51:35.182Z,996.57
2019-03-10T11:52:35.163Z,996.39
2019-03-10T11:53:35.145Z,996.51
2019-03-10T11:54:35.128Z,996.57
2019-03-10T11:55:35.117Z,996.59
2019-03-10T11:56:35.130Z,996.76
2019-03-10T11:57:35.094Z,996.90
2019-03-10T11:58:35.084Z,996.62
2019-03-10T11:59:35.072Z,996.68
2019-03-10T12:00:35.062Z,996.68
2019-03-10T12:01:35.071Z,996.74
2019-03-10T12:02:35.050Z,996.81
2019-03-10T12:03:35.029Z,996.73
2019-03-10T12:04:35.020Z,996.75
2019-03-10T12:05:35.009Z,996.85
2019-03-10T12:06:35.018Z,996.89
2019-03-10T12:07:35.014Z,996.93
2019-03-10T12:08:34.979Z,996.74
2019-03-10T12:09:34.970Z,996.96
2019-03-10T12:10:34.978Z,996.98
2019-03-10T12:11:35.101Z,996.79
2019-03-10T12:12:35.056Z,996.87
2019-03-10T12:13:34.926Z,996.91
2019-03-10T12:14:34.910Z,996.99
2019-03-10T12:15:35.273Z,996.93
2019-03-10T12:16:34.920Z,997.05
2019-03-10T12:17:34.887Z,997.00